Time;durP1;ratioP1;P1;durP2;ratioP2;P2;SDS_P1;SDS_P2;PMS_P1;PMS_P2;Temp;Humidity;BMP_temperature;BMP_pressure;BME280_temperature;BME280_humidity;BME280_pressure;Samples;Min_cycle;Max_cycle;Signal;HPM_P1;HPM_P2
2023/03/03 00:01:47;;;;;;;2.42;1.52;;;;;;;6.19;73.39;102311.97;5067010;28;20083;-47
2023/03/03 00:04:14;;;;;;;5.35;1.05;;;;;;;6.19;73.43;102317.47;5049857;28;20045;-49
2023/03/03 00:06:40;;;;;;;2.33;0.90;;;;;;;6.20;73.65;102310.84;5049420;28;20550;-47
2023/03/03 00:09:07;;;;;;;1.95;0.82;;;;;;;6.21;73.48;102308.94;5032451;28;20047;-45
2023/03/03 00:11:33;;;;;;;1.45;0.68;;;;;;;6.18;73.48;102321.31;5049287;28;20037;-46
2023/03/03 00:14:00;;;;;;;1.23;0.55;;;;;;;6.18;73.47;102315.81;5049301;28;20487;-46
2023/03/03 00:16:36;;;;;;;2.55;0.80;;;;;;;6.20;73.38;102318.28;5044515;28;20396;-47
2023/03/03 00:19:12;;;;;;;3.85;2.17;;;;;;;6.19;73.28;102322.16;5049693;28;20045;-46
2023/03/03 00:21:45;;;;;;;5.78;3.20;;;;;;;6.20;73.56;102318.28;5031948;28;20399;-46
2023/03/03 00:24:24;;;;;;;7.63;5.65;;;;;;;6.18;73.48;102321.31;5049692;28;20045;-46
2023/03/03 00:26:51;;;;;;;9.75;6.90;;;;;;;6.18;73.60;102321.31;5038152;28;20135;-46
2023/03/03 00:29:34;;;;;;;11.10;7.63;;;;;;;6.17;73.46;102311.41;5049269;28;20041;-46
2023/03/03 00:32:23;;;;;;;16.45;8.00;;;;;;;6.17;73.38;102316.91;5049195;28;20576;-49
2023/03/03 00:34:52;;;;;;;10.98;7.57;;;;;;;6.16;73.58;102315.28;5047990;28;20040;-46
2023/03/03 00:37:25;;;;;;;11.57;6.45;;;;;;;6.17;73.53;102313.34;5031258;28;20048;-47
2023/03/03 00:39:52;;;;;;;6.40;3.80;;;;;;;6.17;73.55;102321.59;5049876;28;20044;-46
2023/03/03 00:42:19;;;;;;;6.25;3.35;;;;;;;6.17;73.41;102318.84;5049803;28;20052;-47
2023/03/03 00:44:57;;;;;;;6.68;2.58;;;;;;;6.14;73.41;102321.03;5053232;28;20041;-46
2023/03/03 00:47:26;;;;;;;6.03;3.15;;;;;;;6.12;73.26;102322.41;5048862;28;20407;-48
2023/03/03 00:50:10;;;;;;;5.10;2.33;;;;;;;6.11;73.09;102320.78;5049093;28;20044;-47
2023/03/03 00:52:39;;;;;;;3.08;1.30;;;;;;;6.10;73.15;102322.72;5036385;28;20052;-47
2023/03/03 00:55:07;;;;;;;2.33;1.00;;;;;;;6.10;72.84;102314.47;5049094;28;20047;-47
2023/03/03 00:57:34;;;;;;;1.75;1.02;;;;;;;6.12;72.89;102311.41;5054634;28;20490;-46
2023/03/03 01:00:00;;;;;;;6.80;1.52;;;;;;;6.13;72.83;102313.06;5061723;28;20490;-46
2023/03/03 01:02:28;;;;;;;0.80;0.80;;;;;;;6.12;72.87;102312.25;5064320;28;20056;-47
2023/03/03 01:04:55;;;;;;;2.70;0.98;;;;;;;6.11;72.53;102313.38;5068684;28;20166;-46
2023/03/03 01:07:22;;;;;;;1.60;0.80;;;;;;;6.13;72.61;102311.16;5068695;28;20492;-50
2023/03/03 01:09:49;;;;;;;5.00;1.00;;;;;;;6.13;72.46;102310.31;5050577;28;20063;-46
2023/03/03 01:12:16;;;;;;;1.45;0.90;;;;;;;6.12;72.53;102316.91;5068716;28;20049;-49
2023/03/03 01:14:44;;;;;;;1.15;0.80;;;;;;;6.11;72.72;102315.28;5068621;28;20134;-46
2023/03/03 01:17:10;;;;;;;2.22;0.70;;;;;;;6.13;72.47;102322.16;5068803;28;20463;-46
2023/03/03 01:19:37;;;;;;;1.58;0.60;;;;;;;6.14;72.56;102318.28;5068526;28;20043;-47
2023/03/03 01:22:04;;;;;;;2.67;0.70;;;;;;;6.16;72.36;102317.19;5068408;28;20057;-47
2023/03/03 01:24:30;;;;;;;4.47;0.70;;;;;;;6.17;72.35;102314.16;5068834;28;20386;-48
2023/03/03 01:26:57;;;;;;;2.63;1.00;;;;;;;6.17;72.44;102314.16;5068452;28;20052;-46
2023/03/03 01:29:24;;;;;;;1.48;0.60;;;;;;;6.16;72.22;102318.03;5068651;28;20488;-49
2023/03/03 01:31:50;;;;;;;2.55;1.30;;;;;;;6.17;72.22;102319.66;5068710;28;20048;-50
2023/03/03 01:34:17;;;;;;;3.53;1.00;;;;;;;6.19;72.33;102322.16;5068999;28;20032;-46
2023/03/03 01:36:44;;;;;;;1.67;0.95;;;;;;;6.19;72.33;102311.97;5068507;28;20040;-45
2023/03/03 01:39:11;;;;;;;2.28;1.10;;;;;;;6.19;72.33;102316.66;5068137;28;20074;-47
2023/03/03 01:41:38;;;;;;;2.97;0.90;;;;;;;6.19;72.31;102317.47;5068706;28;20131;-46
2023/03/03 01:44:04;;;;;;;5.75;1.17;;;;;;;6.20;72.38;102312.78;5068134;28;20051;-48
2023/03/03 01:46:54;;;;;;;2.88;1.20;;;;;;;6.19;72.18;102311.97;5068217;28;20048;-46
2023/03/03 01:49:54;;;;;;;1.75;0.80;;;;;;;6.21;72.45;102315.25;5068658;28;20048;-47
2023/03/03 01:52:32;;;;;;;3.78;1.05;;;;;;;6.21;72.29;102311.69;5041069;28;20080;-49
2023/03/03 01:55:09;;;;;;;3.00;0.70;;;;;;;6.19;72.43;102317.47;5068474;28;20068;-48
2023/03/03 01:57:47;;;;;;;1.23;0.82;;;;;;;6.19;72.55;102311.97;5068453;28;20045;-46
2023/03/03 02:00:15;;;;;;;3.05;0.70;;;;;;;6.19;72.42;102320.22;5068454;28;20037;-49
2023/03/03 02:02:42;;;;;;;2.30;0.85;;;;;;;6.19;72.60;102317.47;5068405;28;20407;-47
2023/03/03 02:05:10;;;;;;;1.45;0.77;;;;;;;6.16;72.65;102315.28;5050677;28;20064;-46
2023/03/03 02:07:37;;;;;;;3.30;1.00;;;;;;;6.16;72.86;102312.53;5051209;28;20048;-48
2023/03/03 02:10:14;;;;;;;3.42;0.40;;;;;;;6.17;72.58;102307.84;5067991;28;20048;-47
2023/03/03 02:12:47;;;;;;;1.52;0.68;;;;;;;6.15;72.66;102316.38;5068729;28;20040;-46
2023/03/03 02:15:21;;;;;;;1.17;0.80;;;;;;;6.15;72.79;102316.38;5067775;28;20044;-47
2023/03/03 02:17:58;;;;;;;1.83;0.90;;;;;;;6.17;72.96;102313.34;5062172;28;20102;-47
2023/03/03 02:20:34;;;;;;;1.80;0.85;;;;;;;6.15;72.80;102324.63;5068149;28;20103;-49
2023/03/03 02:23:00;;;;;;;1.70;0.70;;;;;;;6.13;72.80;102318.56;5068007;28;20390;-46
2023/03/03 02:25:41;;;;;;;1.98;0.70;;;;;;;6.13;72.80;102318.56;5068494;28;20060;-47
2023/03/03 02:28:07;;;;;;;5.07;0.90;;;;;;;6.12;72.38;102320.50;5068250;28;20037;-49
2023/03/03 02:30:37;;;;;;;2.05;0.68;;;;;;;6.12;72.66;102312.25;5067748;28;20049;-46
2023/03/03 02:33:05;;;;;;;1.40;0.60;;;;;;;6.14;72.53;102312.00;5068092;28;20047;-47
2023/03/03 02:35:36;;;;;;;1.33;0.70;;;;;;;6.11;72.74;102316.13;5071099;28;20564;-49
2023/03/03 02:38:18;;;;;;;1.10;0.80;;;;;;;6.11;72.72;102313.38;5071781;28;20076;-46
2023/03/03 02:41:17;;;;;;;3.55;0.70;;;;;;;6.10;72.54;102321.88;5071683;28;20052;-50
2023/03/03 02:43:57;;;;;;;2.67;0.80;;;;;;;6.09;72.68;102318.28;5071549;28;20040;-46
2023/03/03 02:46:25;;;;;;;1.73;0.82;;;;;;;6.09;72.80;102321.03;5071694;28;20514;-47
2023/03/03 02:48:51;;;;;;;4.60;0.63;;;;;;;6.11;72.93;102320.78;5071319;28;20127;-53
2023/03/03 02:51:18;;;;;;;2.90;0.77;;;;;;;6.10;72.86;102325.47;5071337;28;20569;-50
2023/03/03 02:53:46;;;;;;;1.05;0.80;;;;;;;6.11;73.06;102318.03;5053467;28;20414;-46
2023/03/03 02:56:12;;;;;;;2.97;0.80;;;;;;;6.11;72.95;102326.28;5071336;28;20485;-47
2023/03/03 02:58:39;;;;;;;5.57;1.30;;;;;;;6.12;73.02;102322.41;5071465;28;20394;-48
2023/03/03 03:01:06;;;;;;;1.98;0.98;;;;;;;6.14;73.20;102323.78;5096894;22;20052;-46
2023/03/03 03:03:33;;;;;;;0.95;0.77;;;;;;;6.16;73.29;102328.19;5030891;28;20552;-51
2023/03/03 03:05:59;;;;;;;2.95;1.10;;;;;;;6.15;73.20;102321.88;5031342;28;20505;-49
2023/03/03 03:08:26;;;;;;;4.47;1.23;;;;;;;6.15;73.54;102321.88;5030979;28;20053;-46
2023/03/03 03:10:53;;;;;;;1.55;1.45;;;;;;;6.13;73.57;102324.06;5031003;28;20049;-46
2023/03/03 03:13:20;;;;;;;1.20;0.90;;;;;;;6.12;73.47;102326.00;5030932;28;20087;-45
2023/03/03 03:15:46;;;;;;;1.80;0.73;;;;;;;6.12;73.68;102323.25;5031516;28;20510;-46
2023/03/03 03:18:14;;;;;;;1.73;1.08;;;;;;;6.13;73.59;102324.06;5030618;28;20053;-46
2023/03/03 03:20:41;;;;;;;2.15;0.70;;;;;;;6.11;73.57;102320.78;5030796;28;20060;-45
2023/03/03 03:23:08;;;;;;;1.05;0.93;;;;;;;6.10;73.83;102314.47;5030779;28;20050;-45
2023/03/03 03:25:41;;;;;;;3.10;0.85;;;;;;;6.11;73.78;102318.88;5030901;28;20041;-46
2023/03/03 03:28:08;;;;;;;2.25;1.20;;;;;;;6.10;73.87;102319.13;5031019;28;20071;-46
2023/03/03 03:30:36;;;;;;;2.92;1.10;;;;;;;6.09;73.96;102326.53;5030567;28;20144;-46
2023/03/03 03:33:03;;;;;;;1.85;1.20;;;;;;;6.07;73.77;102319.69;5031410;28;20052;-45
2023/03/03 03:35:31;;;;;;;1.20;0.80;;;;;;;6.03;73.79;102321.34;5030378;28;20049;-46
2023/03/03 03:37:58;;;;;;;3.15;1.00;;;;;;;5.99;73.78;102317.47;5029167;28;20124;-46
2023/03/03 03:40:25;;;;;;;3.45;0.90;;;;;;;5.98;73.91;102315.84;5030345;28;20407;-46
2023/03/03 03:42:52;;;;;;;1.88;0.65;;;;;;;5.97;73.93;102319.69;5030381;28;20513;-46
2023/03/03 03:45:20;;;;;;;2.35;0.98;;;;;;;5.96;74.04;102312.53;5029913;28;20049;-46
2023/03/03 03:47:48;;;;;;;0.93;0.80;;;;;;;5.98;74.12;102315.84;5030468;28;20049;-46
2023/03/03 03:50:15;;;;;;;4.90;1.08;;;;;;;6.00;73.99;102310.91;5030296;28;20042;-48
2023/03/03 03:52:42;;;;;;;2.08;0.52;;;;;;;6.01;74.14;102312.56;5030313;28;20618;-46
2023/03/03 03:55:09;;;;;;;1.45;0.90;;;;;;;5.98;74.13;102302.09;5030540;28;20108;-46
2023/03/03 03:57:36;;;;;;;1.73;0.93;;;;;;;5.96;74.17;102307.03;5030643;28;20045;-47
2023/03/03 04:00:04;;;;;;;2.35;1.17;;;;;;;5.94;74.25;102303.75;5030298;28;20056;-47
2023/03/03 04:02:31;;;;;;;1.30;1.20;;;;;;;5.93;74.57;102305.66;5030269;28;20049;-48
2023/03/03 04:04:58;;;;;;;3.53;1.40;;;;;;;5.92;74.80;102306.78;5030073;28;20135;-46
2023/03/03 04:07:25;;;;;;;3.30;0.90;;;;;;;5.92;74.70;102304.03;5031058;28;20049;-46
2023/03/03 04:09:51;;;;;;;2.15;0.80;;;;;;;5.93;74.92;102294.66;5030006;28;20080;-46
2023/03/03 04:12:18;;;;;;;3.78;1.23;;;;;;;5.94;74.93;102303.75;5030277;28;20396;-46
2023/03/03 04:14:45;;;;;;;1.45;1.20;;;;;;;5.95;74.89;102302.66;5029974;28;20410;-48
2023/03/03 04:17:17;;;;;;;1.35;0.98;;;;;;;5.95;75.22;102310.91;5029818;28;20046;-46
2023/03/03 04:19:44;;;;;;;1.65;1.30;;;;;;;5.94;75.09;102307.31;5029688;28;20053;-45
2023/03/03 04:22:12;;;;;;;3.00;1.65;;;;;;;5.92;75.36;102311.44;5030074;28;20046;-45
2023/03/03 04:24:39;;;;;;;7.18;1.38;;;;;;;5.88;75.23;102322.16;5030181;28;20068;-46
2023/03/03 04:27:08;;;;;;;2.25;1.40;;;;;;;5.88;75.35;102322.16;5029844;28;20049;-47
2023/03/03 04:29:35;;;;;;;3.45;1.73;;;;;;;5.87;75.17;102319.72;5029511;28;20041;-46
2023/03/03 04:32:01;;;;;;;2.92;1.20;;;;;;;5.85;75.32;102319.16;5011884;28;20051;-46
2023/03/03 04:34:28;;;;;;;1.88;1.25;;;;;;;5.85;75.47;102319.16;5029515;28;20120;-49
2023/03/03 04:36:55;;;;;;;2.05;1.38;;;;;;;5.84;75.32;102321.03;5029761;28;20379;-46
2023/03/03 04:39:21;;;;;;;4.80;1.45;;;;;;;5.85;75.73;102316.41;5029754;28;20053;-46
2023/03/03 04:41:48;;;;;;;1.30;1.20;;;;;;;5.85;75.50;102322.72;5029380;28;20073;-46
2023/03/03 04:44:15;;;;;;;3.63;1.50;;;;;;;5.87;75.90;102319.72;5029257;28;20430;-46
2023/03/03 04:46:41;;;;;;;1.75;1.38;;;;;;;5.87;76.05;102327.94;5029340;28;20056;-46
2023/03/03 04:49:08;;;;;;;2.42;1.58;;;;;;;5.86;75.73;102329.88;5029023;28;20053;-46
2023/03/03 04:51:37;;;;;;;2.85;1.58;;;;;;;5.86;76.04;102318.88;5029300;28;20045;-46
2023/03/03 04:54:05;;;;;;;2.80;1.38;;;;;;;5.86;75.96;102318.03;5029725;28;20442;-45
2023/03/03 04:56:32;;;;;;;5.25;1.42;;;;;;;5.86;75.87;102324.38;5029631;28;20045;-46
2023/03/03 04:58:58;;;;;;;2.28;1.35;;;;;;;5.87;75.85;102322.44;5028136;28;20053;-46
2023/03/03 05:01:25;;;;;;;6.15;1.60;;;;;;;5.87;75.97;102319.72;5028721;28;20437;-47
2023/03/03 05:03:52;;;;;;;2.22;1.50;;;;;;;5.85;76.26;102317.22;5011584;28;20053;-46
2023/03/03 05:06:20;;;;;;;1.80;1.30;;;;;;;5.87;76.36;102322.44;5028957;28;20128;-45
2023/03/03 05:08:46;;;;;;;2.47;1.77;;;;;;;5.86;76.47;102324.38;5016176;28;20140;-47
2023/03/03 05:11:13;;;;;;;4.25;1.15;;;;;;;5.86;76.59;102318.03;5028836;28;20248;-51
2023/03/03 05:13:40;;;;;;;2.85;1.40;;;;;;;5.85;76.65;102321.91;5029962;28;20435;-46
2023/03/03 05:16:07;;;;;;;4.25;1.23;;;;;;;5.83;76.43;102324.88;5028740;28;20059;-49
2023/03/03 05:18:33;;;;;;;2.20;1.63;;;;;;;5.81;76.60;102321.59;5028842;28;20056;-46
2023/03/03 05:21:00;;;;;;;3.70;1.80;;;;;;;5.83;76.81;102315.81;5028345;28;20041;-45
2023/03/03 05:23:28;;;;;;;1.33;1.20;;;;;;;5.83;76.87;102315.81;5029067;28;20375;-45
2023/03/03 05:25:54;;;;;;;2.45;1.50;;;;;;;5.85;77.11;102327.41;5028479;28;20045;-46
2023/03/03 05:28:21;;;;;;;2.92;1.63;;;;;;;5.84;77.18;102325.72;5010885;28;20045;-45
2023/03/03 05:30:48;;;;;;;6.10;2.53;;;;;;;5.83;77.13;102324.06;5028894;28;20057;-46
2023/03/03 05:33:16;;;;;;;3.05;1.80;;;;;;;5.83;77.10;102319.38;5028860;28;20041;-46
2023/03/03 05:35:43;;;;;;;1.73;1.63;;;;;;;5.84;77.46;102325.72;5028317;28;20053;-46
2023/03/03 05:38:10;;;;;;;1.52;1.42;;;;;;;5.82;77.34;102319.69;5028412;28;20510;-46
2023/03/03 05:40:38;;;;;;;1.67;1.58;;;;;;;5.83;77.53;102329.56;5026238;28;20041;-51
2023/03/03 05:43:05;;;;;;;2.78;1.70;;;;;;;5.84;77.26;102325.72;5028889;28;20068;-45
2023/03/03 05:45:33;;;;;;;5.90;2.25;;;;;;;5.82;77.54;102320.50;5024736;28;20137;-46
2023/03/03 05:48:00;;;;;;;4.40;2.20;;;;;;;5.83;77.60;102319.38;5029042;28;20060;-46
2023/03/03 05:50:26;;;;;;;4.43;2.03;;;;;;;5.84;77.56;102325.72;5028275;28;20395;-46
2023/03/03 05:52:55;;;;;;;2.92;1.80;;;;;;;5.84;77.61;102325.72;5010965;28;20053;-46
2023/03/03 05:55:21;;;;;;;4.30;3.35;;;;;;;5.85;77.63;102319.16;5010859;28;20038;-45
2023/03/03 05:57:48;;;;;;;3.75;2.30;;;;;;;5.84;77.73;102320.22;5028563;28;20045;-45
2023/03/03 06:00:16;;;;;;;3.38;2.38;;;;;;;5.84;78.06;102315.56;5028189;28;20376;-46
2023/03/03 06:02:43;;;;;;;6.38;2.78;;;;;;;5.85;78.34;102317.22;5028229;28;20049;-51
2023/03/03 06:05:10;;;;;;;4.95;2.22;;;;;;;5.86;78.18;102315.28;5028901;28;20451;-46
2023/03/03 06:07:37;;;;;;;3.63;2.83;;;;;;;5.84;78.11;102315.56;5028254;28;20046;-47
2023/03/03 06:10:04;;;;;;;5.13;2.50;;;;;;;5.84;78.14;102317.47;5030968;28;20041;-45
2023/03/03 06:12:31;;;;;;;6.25;3.65;;;;;;;5.83;78.46;102321.31;5032195;28;20038;-45
2023/03/03 06:14:58;;;;;;;5.10;2.78;;;;;;;5.82;78.54;102311.44;5032147;28;20351;-46
2023/03/03 06:17:24;;;;;;;4.20;2.75;;;;;;;5.82;78.43;102319.69;5030933;28;20049;-46
2023/03/03 06:19:51;;;;;;;6.90;2.92;;;;;;;5.84;78.58;102315.56;5030288;28;20403;-46
2023/03/03 06:22:18;;;;;;;4.03;2.90;;;;;;;5.83;78.70;102319.38;5032756;28;20120;-47
2023/03/03 06:24:45;;;;;;;5.25;3.22;;;;;;;5.84;78.96;102314.72;5031737;28;20144;-51
2023/03/03 06:27:11;;;;;;;6.95;3.65;;;;;;;5.84;79.12;102320.22;5031695;28;20034;-46
2023/03/03 06:29:38;;;;;;;5.68;3.15;;;;;;;5.82;79.03;102320.50;5031759;28;20472;-46
2023/03/03 06:32:05;;;;;;;11.88;3.88;;;;;;;5.84;79.36;102325.72;5031688;28;20131;-46
2023/03/03 06:34:36;;;;;;;5.20;4.10;;;;;;;5.84;79.16;102326.53;5032016;28;20049;-50
2023/03/03 06:37:03;;;;;;;6.03;3.47;;;;;;;5.86;79.41;102323.53;5031492;28;20290;-46
2023/03/03 06:39:30;;;;;;;5.97;3.50;;;;;;;5.87;79.59;102319.72;5032895;28;20036;-46
2023/03/03 06:41:57;;;;;;;13.93;3.95;;;;;;;5.86;79.50;102332.63;5031380;28;20467;-46
2023/03/03 06:44:24;;;;;;;5.13;3.20;;;;;;;5.87;79.73;102325.19;5031675;28;20049;-45
2023/03/03 06:46:56;;;;;;;5.25;3.75;;;;;;;5.88;79.69;102337.81;5031567;28;20053;-54
2023/03/03 06:49:22;;;;;;;7.60;3.47;;;;;;;5.86;79.83;102340.03;5031494;28;20045;-46
2023/03/03 06:51:49;;;;;;;9.52;2.85;;;;;;;5.87;79.94;102338.94;5013800;28;20778;-46
2023/03/03 06:54:19;;;;;;;4.97;3.50;;;;;;;5.86;80.09;102335.38;5031457;28;20510;-46
2023/03/03 06:56:46;;;;;;;7.15;3.30;;;;;;;5.87;80.05;102339.78;5031566;28;20041;-49
2023/03/03 06:59:18;;;;;;;5.82;3.45;;;;;;;5.90;80.09;102341.16;5031202;28;20057;-46
2023/03/03 07:01:47;;;;;;;8.35;3.78;;;;;;;5.90;80.38;102346.66;5030840;28;20051;-46
2023/03/03 07:04:32;;;;;;;6.50;3.30;;;;;;;5.91;80.26;102348.28;5031335;28;20488;-46
2023/03/03 07:07:14;;;;;;;4.57;3.42;;;;;;;5.90;80.24;102357.63;5031471;28;20064;-46
2023/03/03 07:09:43;;;;;;;9.93;5.35;;;;;;;5.87;80.71;102345.28;5031008;28;20040;-46
2023/03/03 07:12:15;;;;;;;5.78;4.53;;;;;;;5.86;80.72;102348.28;5031279;28;20053;-46
2023/03/03 07:14:46;;;;;;;5.80;4.20;;;;;;;5.86;80.73;102351.84;5035251;28;20042;-45
2023/03/03 07:17:19;;;;;;;8.13;4.05;;;;;;;5.89;81.03;102350.47;5031262;28;20060;-48
2023/03/03 07:19:46;;;;;;;5.35;3.15;;;;;;;5.90;80.83;102347.47;5027903;28;20041;-45
2023/03/03 07:22:16;;;;;;;8.38;4.25;;;;;;;5.92;81.16;102355.44;5030357;28;20168;-45
2023/03/03 07:24:45;;;;;;;5.78;4.07;;;;;;;5.92;81.23;102352.69;5031184;28;20053;-46
2023/03/03 07:27:18;;;;;;;5.78;3.35;;;;;;;5.90;81.29;102360.38;5030845;28;20053;-46
2023/03/03 07:29:50;;;;;;;4.57;3.55;;;;;;;5.90;81.34;102358.47;5031189;28;20053;-47
2023/03/03 07:32:29;;;;;;;6.35;3.65;;;;;;;5.91;81.37;102364.75;5030819;28;20104;-46
2023/03/03 07:34:55;;;;;;;8.77;3.60;;;;;;;5.90;81.29;102371.38;5019331;28;20443;-52
2023/03/03 07:37:37;;;;;;;8.18;3.42;;;;;;;5.90;81.56;102368.63;5030988;28;20045;-47
2023/03/03 07:40:20;;;;;;;5.40;3.15;;;;;;;5.91;81.66;102373.00;5030439;28;21023;-47
2023/03/03 07:42:47;;;;;;;5.35;3.60;;;;;;;5.91;81.36;102384.84;5030214;28;20049;-46
2023/03/03 07:45:33;;;;;;;5.05;2.63;;;;;;;5.90;81.63;102387.88;5030231;28;20057;-47
2023/03/03 07:48:12;;;;;;;5.97;3.05;;;;;;;5.90;81.50;102390.63;5031057;28;20045;-46
2023/03/03 07:50:40;;;;;;;7.82;2.85;;;;;;;5.92;81.44;102382.91;5030259;28;20531;-46
2023/03/03 07:53:35;;;;;;;7.43;3.67;;;;;;;5.93;81.38;102387.31;5031095;28;20041;-46
2023/03/03 07:56:13;;;;;;;4.75;3.10;;;;;;;5.92;81.59;102389.25;5027517;28;20053;-48
2023/03/03 07:58:41;;;;;;;9.43;5.70;;;;;;;5.96;81.38;102384.84;5030508;28;20046;-47
2023/03/03 08:01:39;;;;;;;16.60;9.45;;;;;;;5.98;81.50;102384.59;5029901;28;20381;-45
2023/03/03 08:04:15;;;;;;;10.88;6.13;;;;;;;5.99;81.30;102380.72;5019055;28;20061;-46
2023/03/03 08:06:48;;;;;;;8.68;5.75;;;;;;;5.97;81.35;102386.50;5029390;28;20407;-46
2023/03/03 08:09:14;;;;;;;;;;;;;;;5.95;81.49;102394.19;5027454;28;20463;-47
2023/03/03 08:11:54;;;;;;;5.18;3.42;;;;;;;5.96;81.34;102400.50;5029466;28;19928;-50
2023/03/03 08:14:28;;;;;;;9.35;3.60;;;;;;;5.96;81.16;102400.50;5029826;28;20480;-47
2023/03/03 08:16:56;;;;;;;7.57;3.40;;;;;;;5.97;81.50;102402.16;5029992;28;20048;-48
2023/03/03 08:19:26;;;;;;;7.85;4.30;;;;;;;5.99;81.39;102399.97;5018224;28;20480;-46
2023/03/03 08:21:59;;;;;;;7.15;3.47;;;;;;;6.02;81.54;102410.41;5043165;28;20060;-47
2023/03/03 08:24:27;;;;;;;7.30;3.95;;;;;;;6.02;81.42;102404.91;5017905;28;20494;-46
2023/03/03 08:26:54;;;;;;;4.60;3.55;;;;;;;6.03;81.64;102414.81;5029314;28;20045;-46
2023/03/03 08:29:20;;;;;;;7.65;3.63;;;;;;;6.04;81.57;102408.19;5029369;28;20038;-48
2023/03/03 08:31:47;;;;;;;5.75;3.58;;;;;;;6.04;81.60;102414.53;5028661;28;20041;-46
2023/03/03 08:34:14;;;;;;;7.93;4.38;;;;;;;6.06;81.43;102417.03;5029283;28;20049;-48
2023/03/03 08:36:40;;;;;;;6.38;3.80;;;;;;;6.07;81.69;102418.66;5029261;28;20049;-48
2023/03/03 08:39:08;;;;;;;9.65;4.45;;;;;;;6.05;81.71;102415.38;5030162;28;20044;-50
2023/03/03 08:41:34;;;;;;;9.57;3.92;;;;;;;6.05;81.72;102423.63;5028897;28;20099;-47
2023/03/03 08:44:01;;;;;;;4.78;2.88;;;;;;;6.03;81.60;102418.41;5029365;28;20053;-47
2023/03/03 08:46:28;;;;;;;5.35;2.78;;;;;;;6.03;81.73;102417.56;5029146;28;20048;-47
2023/03/03 08:48:55;;;;;;;4.10;2.33;;;;;;;6.02;81.75;102422.25;5029457;28;20049;-47
2023/03/03 08:51:22;;;;;;;6.13;2.15;;;;;;;6.03;81.79;102423.91;5028812;28;20144;-47
2023/03/03 08:53:48;;;;;;;14.45;4.85;;;;;;;6.05;81.74;102426.38;5028928;28;20041;-46
2023/03/03 08:56:15;;;;;;;7.43;3.60;;;;;;;6.05;81.74;102426.38;5034638;28;20069;-46
2023/03/03 08:58:46;;;;;;;3.75;2.88;;;;;;;6.06;81.64;102430.78;5028767;28;20056;-49
2023/03/03 09:01:27;;;;;;;8.02;3.85;;;;;;;6.03;81.92;102428.56;5028773;28;20060;-48
2023/03/03 09:03:54;;;;;;;7.00;3.05;;;;;;;6.05;81.79;102427.19;5028920;28;20053;-48
2023/03/03 09:06:21;;;;;;;4.13;2.28;;;;;;;6.06;81.96;102428.81;5028662;28;20045;-51
2023/03/03 09:08:49;;;;;;;3.00;1.35;;;;;;;6.09;81.92;102438.44;5028800;28;20045;-48
2023/03/03 09:11:23;;;;;;;3.42;2.10;;;;;;;6.10;82.04;102435.44;5028601;28;20057;-49
2023/03/03 09:14:09;;;;;;;5.03;2.92;;;;;;;6.13;82.09;102437.66;5017097;28;20051;-51
2023/03/03 09:16:46;;;;;;;10.80;2.40;;;;;;;6.17;82.12;102439.84;5028108;28;20049;-49
2023/03/03 09:19:29;;;;;;;2.13;1.15;;;;;;;6.14;81.95;102430.22;5025513;28;20364;-47
2023/03/03 09:22:17;;;;;;;5.07;1.80;;;;;;;6.16;81.95;102444.53;5029262;28;20099;-45
2023/03/03 09:24:46;;;;;;;2.35;1.63;;;;;;;6.17;81.94;102440.66;5028681;28;20460;-52
2023/03/03 09:27:21;;;;;;;3.50;2.22;;;;;;;6.20;82.07;102451.09;5028577;28;20439;-47
2023/03/03 09:29:48;;;;;;;5.80;3.30;;;;;;;6.22;81.89;102454.44;5028990;28;20107;-51
2023/03/03 09:32:37;;;;;;;6.70;2.72;;;;;;;6.24;81.85;102457.72;5028368;28;20037;-47
2023/03/03 09:35:37;;;;;;;2.67;1.27;;;;;;;6.28;82.11;102450.56;5017490;28;20489;-46
2023/03/03 09:38:24;;;;;;;1.90;0.63;;;;;;;6.30;81.95;102462.09;5028614;28;20045;-47
2023/03/03 09:41:17;;;;;;;2.88;1.10;;;;;;;6.37;81.90;102457.19;5026256;28;20045;-49
2023/03/03 09:43:58;;;;;;;2.05;0.70;;;;;;;6.45;81.70;102464.88;5028751;28;20053;-47
2023/03/03 09:46:47;;;;;;;3.03;0.95;;;;;;;6.50;81.75;102467.63;5032889;28;20041;-49
2023/03/03 09:49:28;;;;;;;1.95;0.70;;;;;;;6.52;81.57;102465.41;5032682;28;20049;-47
2023/03/03 09:52:26;;;;;;;4.30;0.90;;;;;;;6.58;81.58;102475.31;5032291;28;20052;-47
2023/03/03 09:55:07;;;;;;;2.47;0.50;;;;;;;6.62;81.51;102481.91;5032679;28;20298;-48
2023/03/03 09:57:50;;;;;;;5.35;0.77;;;;;;;6.67;81.33;102489.34;5014932;28;20045;-47
2023/03/03 10:00:55;;;;;;;1.10;0.50;;;;;;;6.70;81.38;102480.53;5032290;28;20395;-48
2023/03/03 10:03:36;;;;;;;2.75;0.60;;;;;;;6.77;81.30;102477.50;5038408;28;20140;-46
2023/03/03 10:06:20;;;;;;;0.47;0.40;;;;;;;6.82;81.10;102474.72;5032360;28;20053;-46
2023/03/03 10:08:56;;;;;;;4.07;0.65;;;;;;;6.86;81.13;102482.16;5032464;28;20041;-47
2023/03/03 10:11:54;;;;;;;1.13;0.43;;;;;;;6.92;81.03;102474.72;5032058;28;20052;-46
2023/03/03 10:14:59;;;;;;;2.10;0.70;;;;;;;6.99;81.06;102475.28;5031951;28;20053;-47
2023/03/03 10:17:35;;;;;;;1.13;0.40;;;;;;;7.02;80.82;102483.78;5031233;28;20046;-46
2023/03/03 10:20:16;;;;;;;5.30;0.80;;;;;;;7.07;80.89;102485.72;5032537;28;20384;-47
2023/03/03 10:22:47;;;;;;;2.43;0.77;;;;;;;7.12;80.84;102485.69;5031641;28;20051;-46
2023/03/03 10:25:41;;;;;;;5.85;0.63;;;;;;;7.15;80.85;102480.44;5014447;28;20656;-46
2023/03/03 10:28:30;;;;;;;2.83;0.70;;;;;;;7.21;80.76;102484.00;4994948;28;20069;-47
2023/03/03 10:31:05;;;;;;;6.03;2.13;;;;;;;7.26;80.69;102486.72;5031676;28;20053;-46
2023/03/03 10:33:59;;;;;;;7.13;0.85;;;;;;;7.30;80.68;102491.41;5031753;28;20050;-47
2023/03/03 10:36:35;;;;;;;3.55;1.25;;;;;;;7.33;80.59;102499.09;5032192;28;20049;-46
2023/03/03 10:39:23;;;;;;;5.72;1.85;;;;;;;7.32;80.63;102505.72;5031401;28;20147;-49
2023/03/03 10:42:14;;;;;;;2.08;0.85;;;;;;;7.23;80.45;102499.13;5031332;28;20053;-47
2023/03/03 10:44:56;;;;;;;4.63;0.82;;;;;;;7.16;80.66;102506.06;5031543;28;20041;-50
2023/03/03 10:47:29;;;;;;;3.58;0.63;;;;;;;7.10;80.91;102504.41;5031201;28;20513;-47
2023/03/03 10:50:04;;;;;;;3.05;1.17;;;;;;;6.95;80.64;102510.78;5013382;28;20037;-46
2023/03/03 10:52:37;;;;;;;6.20;2.13;;;;;;;6.90;81.02;102516.31;5018452;28;20042;-48
2023/03/03 10:55:30;;;;;;;0.73;0.70;;;;;;;6.84;81.04;102513.81;5043889;28;20140;-49
2023/03/03 10:58:09;;;;;;;1.35;0.70;;;;;;;6.80;81.08;102516.31;5031044;28;20045;-46
2023/03/03 11:00:51;;;;;;;7.25;1.77;;;;;;;6.80;81.45;102513.56;5030754;28;20057;-46
2023/03/03 11:03:36;;;;;;;2.50;0.63;;;;;;;6.85;81.45;102512.72;5030905;28;20450;-45
2023/03/03 11:06:32;;;;;;;4.97;0.80;;;;;;;6.89;81.48;102520.16;5031167;28;20049;-46
2023/03/03 11:09:31;;;;;;;2.55;0.60;;;;;;;6.92;81.57;102518.75;5030983;28;20419;-46
2023/03/03 11:12:44;;;;;;;2.25;0.70;;;;;;;6.91;81.38;102511.63;5020835;28;20418;-47
2023/03/03 11:15:25;;;;;;;1.37;0.40;;;;;;;6.90;81.57;102519.06;4997226;28;20558;-46
2023/03/03 11:17:58;;;;;;;1.27;0.45;;;;;;;6.91;81.62;102528.16;5027592;28;20299;-48
2023/03/03 11:21:01;;;;;;;1.35;0.85;;;;;;;6.91;81.67;102517.13;5031041;28;20037;-48
2023/03/03 11:23:31;;;;;;;;;;;;;;;6.85;81.51;102519.06;5031212;28;20037;-47
2023/03/03 11:26:23;;;;;;;2.95;1.23;;;;;;;6.84;81.67;102522.06;5030735;28;19955;-47
2023/03/03 11:29:15;;;;;;;2.72;0.90;;;;;;;6.83;81.72;102520.44;5031765;28;20049;-45
2023/03/03 11:31:47;;;;;;;2.40;0.82;;;;;;;6.80;81.83;102532.84;5030517;28;20057;-48
2023/03/03 11:34:38;;;;;;;2.83;1.35;;;;;;;6.73;81.71;102527.59;5030731;28;20056;-46
2023/03/03 11:37:08;;;;;;;2.00;0.70;;;;;;;6.66;81.91;102521.56;5031082;28;20104;-45
2023/03/03 11:39:36;;;;;;;3.13;2.05;;;;;;;6.55;82.08;102524.56;5017830;28;20144;-45
2023/03/03 11:42:20;;;;;;;3.88;1.10;;;;;;;6.50;82.16;102524.56;5029898;28;20239;-46
2023/03/03 11:44:51;;;;;;;2.40;1.25;;;;;;;6.44;82.54;102529.25;5030671;28;20460;-45
2023/03/03 11:47:24;;;;;;;1.77;1.25;;;;;;;6.43;82.74;102535.88;5030185;28;20045;-45
2023/03/03 11:50:02;;;;;;;3.53;0.88;;;;;;;6.38;nan;102533.06;5030137;28;20053;-45
2023/03/03 11:52:52;;;;;;;2.65;0.98;;;;;;;6.28;82.85;102541.31;5030048;28;20048;-45
2023/03/03 11:55:27;;;;;;;3.35;1.35;;;;;;;6.22;83.19;102541.59;5030154;28;20049;-46
2023/03/03 11:58:13;;;;;;;2.83;1.25;;;;;;;6.19;83.07;102544.91;5029643;28;20407;-48
2023/03/03 12:01:19;;;;;;;2.55;1.30;;;;;;;6.13;83.47;102541.31;5029809;28;20052;-46